Time;durP1;ratioP1;P1;durP2;ratioP2;P2;SDS_P1;SDS_P2;PMS_P1;PMS_P2;Temp;Humidity;BMP_temperature;BMP_pressure;BME280_temperature;BME280_humidity;BME280_pressure;Samples;Min_cycle;Max_cycle;Signal;HPM_P1;HPM_P2
2023/05/02 00:00:35;;;;;;;45.03;28.83;;;10.00;99.90;;;;;;5023658;28;20021;-65
2023/05/02 00:03:00;;;;;;;45.45;27.23;;;10.10;99.90;;;;;;5022439;28;20015;-64
2023/05/02 00:05:26;;;;;;;43.75;27.75;;;10.20;99.90;;;;;;5027670;28;20403;-65
2023/05/02 00:07:52;;;;;;;41.40;26.67;;;10.30;99.90;;;;;;5024036;28;20036;-64
2023/05/02 00:10:18;;;;;;;41.83;24.45;;;10.40;99.90;;;;;;5023325;28;20030;-63
2023/05/02 00:12:44;;;;;;;37.40;24.75;;;10.40;99.90;;;;;;5028997;28;20036;-63
2023/05/02 00:15:09;;;;;;;34.78;23.05;;;10.40;99.90;;;;;;5030271;28;20033;-65
2023/05/02 00:17:35;;;;;;;39.47;24.50;;;10.50;99.90;;;;;;5023141;28;20045;-65
2023/05/02 00:20:03;;;;;;;31.48;21.15;;;10.50;99.90;;;;;;5031799;28;20521;-65
2023/05/02 00:22:29;;;;;;;38.35;23.70;;;10.50;99.90;;;;;;5024812;28;20322;-66
2023/05/02 00:24:56;;;;;;;39.17;23.98;;;10.50;99.90;;;;;;5026545;28;20562;-63
2023/05/02 00:27:22;;;;;;;36.00;23.35;;;10.50;99.90;;;;;;5028589;28;20026;-63
2023/05/02 00:29:47;;;;;;;36.45;22.15;;;10.50;99.90;;;;;;5031070;28;20039;-64
2023/05/02 00:32:13;;;;;;;32.75;21.52;;;10.50;99.90;;;;;;5031746;28;20033;-63
2023/05/02 00:34:40;;;;;;;35.47;22.60;;;10.60;99.90;;;;;;5023184;28;20044;-64
2023/05/02 00:37:06;;;;;;;34.72;22.13;;;10.50;99.90;;;;;;5019028;28;20030;-65
2023/05/02 00:39:33;;;;;;;33.17;21.42;;;10.50;99.90;;;;;;5006981;28;20053;-64
2023/05/02 00:41:59;;;;;;;35.92;22.83;;;10.30;99.90;;;;;;5030266;28;20053;-64
2023/05/02 00:44:25;;;;;;;39.88;23.33;;;10.20;99.90;;;;;;5023228;28;20586;-65
2023/05/02 00:46:52;;;;;;;34.03;22.58;;;10.10;99.90;;;;;;5026958;28;20056;-63
2023/05/02 00:49:18;;;;;;;42.75;25.23;;;10.10;99.90;;;;;;4996574;28;20038;-63
2023/05/02 00:51:44;;;;;;;42.85;25.33;;;10.00;99.90;;;;;;5024543;28;20444;-66
2023/05/02 00:54:11;;;;;;;42.05;25.65;;;10.00;99.90;;;;;;5026862;28;20064;-64
2023/05/02 00:56:37;;;;;;;43.30;26.95;;;10.00;99.90;;;;;;5025735;28;20098;-64
2023/05/02 00:59:08;;;;;;;42.08;26.20;;;10.00;99.90;;;;;;5025878;28;20448;-65
2023/05/02 01:01:50;;;;;;;45.95;26.38;;;9.90;99.90;;;;;;5026117;28;20535;-65
2023/05/02 01:04:22;;;;;;;42.20;26.85;;;9.80;99.90;;;;;;5020696;28;20025;-64
2023/05/02 01:06:58;;;;;;;50.80;28.75;;;9.70;99.90;;;;;;5024863;28;20071;-63
2023/05/02 01:09:41;;;;;;;48.22;28.85;;;9.60;99.90;;;;;;5025745;28;20037;-65
2023/05/02 01:12:17;;;;;;;49.53;30.02;;;9.60;99.90;;;;;;5023263;28;20023;-64
2023/05/02 01:14:47;;;;;;;56.35;30.50;;;9.60;99.90;;;;;;5024470;28;20484;-63
2023/05/02 01:17:15;;;;;;;55.90;30.33;;;9.60;99.90;;;;;;5029772;28;20017;-65
2023/05/02 01:19:59;;;;;;;58.08;31.92;;;9.60;99.90;;;;;;5028343;28;20061;-63
2023/05/02 01:24:52;;;;;;;49.22;29.35;;;9.70;99.90;;;;;;5041576;23;19928;-65
2023/05/02 01:27:33;;;;;;;55.55;30.67;;;9.80;99.90;;;;;;5008642;28;20030;-64
2023/05/02 01:30:00;;;;;;;49.70;30.05;;;9.80;99.90;;;;;;5008462;28;20372;-64
2023/05/02 01:32:29;;;;;;;55.72;31.23;;;9.80;99.90;;;;;;5009143;28;20060;-64
2023/05/02 01:34:57;;;;;;;56.10;31.52;;;9.80;99.90;;;;;;4987460;28;20424;-64
2023/05/02 01:37:24;;;;;;;52.20;29.70;;;9.80;99.90;;;;;;4984252;28;20097;-64
2023/05/02 01:39:53;;;;;;;56.30;31.55;;;9.80;99.90;;;;;;4963428;28;20058;-65
2023/05/02 01:42:19;;;;;;;61.08;32.25;;;9.80;99.90;;;;;;4980463;28;20567;-64
2023/05/02 01:44:46;;;;;;;60.55;31.83;;;9.80;99.90;;;;;;4975781;28;20128;-64
2023/05/02 01:47:13;;;;;;;59.78;31.65;;;9.80;99.90;;;;;;4991035;28;20038;-65
2023/05/02 01:49:41;;;;;;;61.15;31.55;;;9.80;99.90;;;;;;4973794;28;20053;-64
2023/05/02 01:52:10;;;;;;;58.95;31.80;;;9.80;99.90;;;;;;4990896;28;20033;-64
2023/05/02 01:54:36;;;;;;;64.80;32.80;;;9.80;99.90;;;;;;4990168;28;20042;-65
2023/05/02 01:57:05;;;;;;;64.85;32.58;;;9.80;99.90;;;;;;4986084;28;20019;-65
2023/05/02 01:59:32;;;;;;;59.38;31.42;;;9.90;99.90;;;;;;4987628;28;20159;-65
2023/05/02 02:02:00;;;;;;;59.15;31.45;;;9.90;99.90;;;;;;4974657;28;20110;-65
2023/05/02 02:04:27;;;;;;;60.33;31.70;;;9.90;99.90;;;;;;4985602;28;20066;-65
2023/05/02 02:06:59;;;;;;;61.13;32.72;;;9.90;99.90;;;;;;4971003;28;20448;-65
2023/05/02 02:09:25;;;;;;;58.17;29.80;;;9.90;99.90;;;;;;4983213;28;20041;-65
2023/05/02 02:12:02;;;;;;;66.53;30.85;;;9.90;99.90;;;;;;4988923;28;20034;-63
2023/05/02 02:14:36;;;;;;;55.42;29.13;;;9.90;99.90;;;;;;4988903;28;20025;-65
2023/05/02 02:17:09;;;;;;;61.35;30.33;;;9.90;99.90;;;;;;4992502;28;20105;-64
2023/05/02 02:19:38;;;;;;;62.13;32.43;;;9.80;99.90;;;;;;4986332;28;20080;-65
2023/05/02 02:22:06;;;;;;;63.83;33.08;;;9.70;99.90;;;;;;4988863;28;20077;-64
2023/05/02 02:24:36;;;;;;;64.85;32.45;;;9.60;99.90;;;;;;4991879;28;20113;-65
2023/05/02 02:27:02;;;;;;;67.00;34.05;;;9.60;99.90;;;;;;4985849;28;20101;-65
2023/05/02 02:29:28;;;;;;;72.40;34.33;;;9.60;99.90;;;;;;4991111;28;20105;-64
2023/05/02 02:31:53;;;;;;;70.68;35.58;;;9.70;99.90;;;;;;4980545;28;20374;-64
2023/05/02 02:34:20;;;;;;;68.07;35.30;;;9.70;99.90;;;;;;4975009;28;20030;-64
2023/05/02 02:36:56;;;;;;;70.32;34.33;;;9.70;99.90;;;;;;4991449;28;20035;-64
2023/05/02 02:39:43;;;;;;;72.10;35.55;;;9.70;99.90;;;;;;4986449;28;20023;-64
2023/05/02 02:42:35;;;;;;;77.80;35.13;;;9.60;99.90;;;;;;4991681;28;20058;-64
2023/05/02 02:45:06;;;;;;;75.15;36.40;;;9.60;99.90;;;;;;4981444;28;20037;-65
2023/05/02 02:47:42;;;;;;;78.30;36.40;;;9.60;99.90;;;;;;4986323;28;20032;-65
2023/05/02 02:50:31;;;;;;;78.43;36.70;;;9.70;99.90;;;;;;4964655;28;20046;-65
2023/05/02 02:53:04;;;;;;;75.78;36.17;;;9.70;99.90;;;;;;4972019;28;20492;-65
2023/05/02 02:55:52;;;;;;;79.72;35.83;;;9.70;99.90;;;;;;4981657;28;20552;-65
2023/05/02 02:58:42;;;;;;;81.53;37.00;;;9.70;99.90;;;;;;4991005;28;20021;-65
2023/05/02 03:01:13;;;;;;;82.20;36.28;;;9.80;99.90;;;;;;4988881;28;20034;-64
2023/05/02 03:03:41;;;;;;;90.07;41.00;;;9.80;99.90;;;;;;4987246;28;20030;-65
2023/05/02 03:06:07;;;;;;;83.82;38.00;;;9.80;99.90;;;;;;4988572;28;20053;-64
2023/05/02 03:08:40;;;;;;;81.28;38.25;;;9.80;99.90;;;;;;4987643;28;20860;-65
2023/05/02 03:11:06;;;;;;;78.93;37.38;;;9.80;99.90;;;;;;4986961;28;20041;-65
2023/05/02 03:13:31;;;;;;;84.25;36.10;;;9.80;99.90;;;;;;4989189;28;20028;-65
2023/05/02 03:16:34;;;;;;;85.15;36.03;;;9.80;99.90;;;;;;4991352;28;20026;-65
2023/05/02 03:18:59;;;;;;;78.18;36.83;;;9.90;99.90;;;;;;4984338;28;20105;-65
2023/05/02 03:21:25;;;;;;;92.28;39.55;;;9.80;99.90;;;;;;4990262;28;20118;-64
2023/05/02 03:23:51;;;;;;;83.47;35.83;;;9.80;99.90;;;;;;4990149;28;20045;-65
2023/05/02 03:26:17;;;;;;;83.78;35.15;;;9.80;99.90;;;;;;4990966;28;20449;-65
2023/05/02 03:28:45;;;;;;;76.72;33.35;;;9.80;99.90;;;;;;4991007;28;20034;-65
2023/05/02 03:31:12;;;;;;;78.88;34.25;;;9.70;99.90;;;;;;4988319;28;20050;-64
2023/05/02 03:33:37;;;;;;;75.82;34.10;;;9.70;99.90;;;;;;4990738;28;20034;-65
2023/05/02 03:36:03;;;;;;;80.35;34.38;;;9.80;99.90;;;;;;4987494;28;20532;-64
2023/05/02 03:38:29;;;;;;;76.60;32.85;;;9.80;99.90;;;;;;4990517;28;20624;-63
2023/05/02 03:40:58;;;;;;;72.00;31.17;;;9.80;99.90;;;;;;4985514;28;20037;-65
2023/05/02 03:43:23;;;;;;;69.82;32.10;;;9.80;99.90;;;;;;4980278;28;20023;-64
2023/05/02 03:45:49;;;;;;;69.97;31.95;;;9.80;99.90;;;;;;4978252;28;20045;-63
2023/05/02 03:48:15;;;;;;;69.45;30.70;;;9.80;99.90;;;;;;4987355;28;20030;-65
2023/05/02 03:50:40;;;;;;;79.03;32.33;;;9.80;99.90;;;;;;4949444;28;20053;-64
2023/05/02 03:53:07;;;;;;;69.78;30.92;;;9.80;99.90;;;;;;4981709;28;20030;-64
2023/05/02 03:55:37;;;;;;;72.45;31.23;;;9.80;99.90;;;;;;4987037;28;20022;-64
2023/05/02 03:58:03;;;;;;;64.80;28.80;;;9.90;99.90;;;;;;4987085;28;20027;-65
2023/05/02 04:00:30;;;;;;;74.57;29.27;;;9.90;99.90;;;;;;4985034;28;20400;-65
2023/05/02 04:02:55;;;;;;;62.80;27.55;;;9.80;99.90;;;;;;4986112;28;20507;-64
2023/05/02 04:05:21;;;;;;;67.25;28.05;;;9.80;99.90;;;;;;4982937;28;20030;-64
2023/05/02 04:07:46;;;;;;;60.50;25.60;;;9.80;99.90;;;;;;4981844;28;20519;-65
2023/05/02 04:10:15;;;;;;;66.03;27.77;;;9.80;99.90;;;;;;4986127;28;20049;-64
2023/05/02 04:12:42;;;;;;;61.00;26.95;;;9.80;99.90;;;;;;4981418;28;20058;-65
2023/05/02 04:15:08;;;;;;;63.88;27.90;;;9.90;99.90;;;;;;4960170;28;20023;-65
2023/05/02 04:17:34;;;;;;;72.07;30.23;;;9.90;99.90;;;;;;4979803;28;20089;-64
2023/05/02 04:19:59;;;;;;;74.78;30.60;;;9.90;99.90;;;;;;4985329;28;20109;-63
2023/05/02 04:22:25;;;;;;;75.55;31.67;;;9.90;99.90;;;;;;4983140;28;20023;-65
2023/05/02 04:24:51;;;;;;;72.60;30.17;;;9.90;99.90;;;;;;4971068;28;20042;-64
2023/05/02 04:27:16;;;;;;;67.53;30.42;;;9.90;99.90;;;;;;4978739;28;20484;-65
2023/05/02 04:29:42;;;;;;;70.65;29.73;;;9.90;99.90;;;;;;4984592;28;20475;-64
2023/05/02 04:32:09;;;;;;;68.80;29.73;;;10.00;99.90;;;;;;4978145;28;20404;-65
2023/05/02 04:34:34;;;;;;;74.05;29.33;;;9.90;99.90;;;;;;4977257;28;20026;-64
2023/05/02 04:37:00;;;;;;;66.70;30.60;;;9.90;99.90;;;;;;4982192;28;20038;-63
2023/05/02 04:39:26;;;;;;;67.57;28.95;;;9.90;99.90;;;;;;4984804;28;20093;-64
2023/05/02 04:41:51;;;;;;;63.10;27.38;;;9.90;99.90;;;;;;4982830;28;20050;-65
2023/05/02 04:44:17;;;;;;;73.57;30.98;;;10.00;99.90;;;;;;4980471;28;20689;-64
2023/05/02 04:46:43;;;;;;;57.80;27.88;;;10.00;99.90;;;;;;4984939;28;20093;-65
2023/05/02 04:49:09;;;;;;;66.82;29.73;;;10.00;99.90;;;;;;4958527;28;20712;-64
2023/05/02 04:51:34;;;;;;;64.85;29.90;;;9.90;99.90;;;;;;4984944;28;20121;-65
2023/05/02 04:54:00;;;;;;;63.58;27.00;;;10.00;99.90;;;;;;4983205;28;20543;-63
2023/05/02 04:56:26;;;;;;;57.63;28.20;;;10.00;99.90;;;;;;4980536;28;20057;-64
2023/05/02 04:58:51;;;;;;;63.15;28.05;;;10.10;99.90;;;;;;4988809;28;20058;-65
2023/05/02 05:01:17;;;;;;;59.22;26.60;;;10.10;99.90;;;;;;4984825;28;20026;-65
2023/05/02 05:03:42;;;;;;;56.35;27.02;;;10.10;99.90;;;;;;4980052;28;20026;-64
2023/05/02 05:06:08;;;;;;;58.08;27.27;;;10.10;99.90;;;;;;4977806;28;20031;-64
2023/05/02 05:08:34;;;;;;;58.58;26.50;;;10.10;99.90;;;;;;4983818;28;20023;-64
2023/05/02 05:11:00;;;;;;;57.33;26.05;;;10.20;99.90;;;;;;4986862;28;20030;-65
2023/05/02 05:13:27;;;;;;;57.60;26.08;;;10.20;99.90;;;;;;4982269;28;20022;-65
2023/05/02 05:15:52;;;;;;;59.75;25.27;;;10.30;99.90;;;;;;4981482;28;20026;-64
2023/05/02 05:18:18;;;;;;;54.72;25.35;;;10.30;99.90;;;;;;4983408;28;20583;-65
2023/05/02 05:20:43;;;;;;;53.00;24.38;;;10.30;99.90;;;;;;4986536;28;20026;-65
2023/05/02 05:23:09;;;;;;;55.50;25.33;;;10.40;99.90;;;;;;4986601;28;20026;-64
2023/05/02 05:25:35;;;;;;;62.67;25.98;;;10.40;99.90;;;;;;4987900;28;20034;-64
2023/05/02 05:28:00;;;;;;;60.97;24.75;;;10.50;99.90;;;;;;4987196;28;20030;-64
2023/05/02 05:30:26;;;;;;;53.58;25.92;;;10.60;99.90;;;;;;4984563;28;20081;-64
2023/05/02 05:32:52;;;;;;;57.00;26.40;;;10.60;99.90;;;;;;4986332;28;20031;-64
2023/05/02 05:35:17;;;;;;;53.00;24.95;;;10.60;99.90;;;;;;4986076;28;20097;-64
2023/05/02 05:37:43;;;;;;;55.92;25.65;;;10.60;99.90;;;;;;4984577;28;20034;-65
2023/05/02 05:40:09;;;;;;;55.13;27.40;;;10.60;99.90;;;;;;4988184;28;20022;-65
2023/05/02 05:42:35;;;;;;;50.28;22.88;;;10.60;99.90;;;;;;4987987;28;20495;-64
2023/05/02 05:45:00;;;;;;;56.90;24.27;;;10.50;99.90;;;;;;4986575;28;20037;-65
2023/05/02 05:47:26;;;;;;;57.88;24.77;;;10.50;99.90;;;;;;4988745;28;20038;-65
2023/05/02 05:49:52;;;;;;;56.00;25.38;;;10.50;99.90;;;;;;4961285;28;20515;-65
2023/05/02 05:52:18;;;;;;;55.67;26.42;;;10.60;99.90;;;;;;4985265;28;20034;-64
2023/05/02 05:54:44;;;;;;;54.78;25.38;;;10.50;99.90;;;;;;4990209;28;20038;-64
2023/05/02 05:57:09;;;;;;;56.85;26.58;;;10.50;99.90;;;;;;4983059;28;20106;-65
2023/05/02 05:59:35;;;;;;;55.58;25.77;;;10.50;99.90;;;;;;4985439;28;20157;-64
2023/05/02 06:02:01;;;;;;;59.80;26.50;;;10.50;99.90;;;;;;4980934;28;20026;-65
2023/05/02 06:04:26;;;;;;;58.63;26.42;;;10.40;99.90;;;;;;4990180;28;20035;-64
2023/05/02 06:06:53;;;;;;;60.30;25.90;;;10.40;99.90;;;;;;4988872;28;20480;-64
2023/05/02 06:09:18;;;;;;;58.45;26.90;;;10.50;99.90;;;;;;4985996;28;20034;-64
2023/05/02 06:11:44;;;;;;;63.75;27.38;;;10.50;99.90;;;;;;4987633;28;20045;-64
2023/05/02 06:14:10;;;;;;;60.88;27.67;;;10.50;99.90;;;;;;4984166;28;20086;-64
2023/05/02 06:16:35;;;;;;;55.70;25.23;;;10.60;99.90;;;;;;4985781;28;20113;-64
2023/05/02 06:19:01;;;;;;;60.88;25.98;;;10.60;99.90;;;;;;4984121;28;20034;-64
2023/05/02 06:21:26;;;;;;;59.05;26.15;;;10.70;99.90;;;;;;4989839;28;20050;-65
2023/05/02 06:23:52;;;;;;;58.15;25.13;;;10.80;99.90;;;;;;4988745;28;20045;-64
2023/05/02 06:26:18;;;;;;;57.92;25.50;;;10.90;99.90;;;;;;4985281;28;20046;-65
2023/05/02 06:28:43;;;;;;;52.45;24.15;;;11.00;99.90;;;;;;4992404;28;20027;-65
2023/05/02 06:31:09;;;;;;;47.90;23.05;;;11.20;99.90;;;;;;4984882;28;20114;-64
2023/05/02 06:33:35;;;;;;;51.55;24.30;;;11.40;99.90;;;;;;4981126;28;20037;-64
2023/05/02 06:36:01;;;;;;;49.30;22.77;;;11.50;99.90;;;;;;4986777;28;20054;-64
2023/05/02 06:38:27;;;;;;;48.38;22.30;;;11.60;99.90;;;;;;4987070;28;20065;-65
2023/05/02 06:40:52;;;;;;;44.53;21.42;;;11.80;99.90;;;;;;4991875;28;20034;-65
2023/05/02 06:43:18;;;;;;;42.42;20.17;;;11.90;99.90;;;;;;4987189;28;20029;-65
2023/05/02 06:45:44;;;;;;;40.50;19.73;;;12.00;99.90;;;;;;4989511;28;20034;-64
2023/05/02 06:48:10;;;;;;;41.67;20.75;;;12.00;99.90;;;;;;4982815;28;20026;-65
2023/05/02 06:50:36;;;;;;;38.88;19.27;;;11.90;99.90;;;;;;4965488;28;20046;-63
2023/05/02 06:53:02;;;;;;;40.58;19.33;;;11.80;99.90;;;;;;4989524;28;20034;-64
2023/05/02 06:55:28;;;;;;;40.50;19.20;;;11.60;99.90;;;;;;4988755;28;20045;-64
2023/05/02 06:57:54;;;;;;;35.50;18.88;;;11.50;99.90;;;;;;4987238;28;20527;-65
2023/05/02 07:00:20;;;;;;;42.30;19.95;;;11.50;99.90;;;;;;4983103;28;20029;-64
2023/05/02 07:02:47;;;;;;;40.10;19.65;;;11.50;99.90;;;;;;4985883;28;21532;-64
2023/05/02 07:05:14;;;;;;;43.00;19.90;;;11.60;99.90;;;;;;4986310;28;20022;-64
2023/05/02 07:07:41;;;;;;;39.63;20.25;;;11.50;99.90;;;;;;4979318;28;20038;-64
2023/05/02 07:10:07;;;;;;;39.08;20.73;;;11.60;99.90;;;;;;4986787;28;20057;-65
2023/05/02 07:12:33;;;;;;;41.78;18.95;;;11.70;99.90;;;;;;4986082;28;20113;-64
2023/05/02 07:14:59;;;;;;;39.38;18.52;;;11.70;99.90;;;;;;4987377;28;20109;-64
2023/05/02 07:17:25;;;;;;;37.75;20.20;;;11.60;99.90;;;;;;4987075;28;20518;-64
2023/05/02 07:19:51;;;;;;;35.47;18.60;;;11.60;99.90;;;;;;4984205;28;20026;-64
2023/05/02 07:22:17;;;;;;;37.63;17.80;;;11.60;99.90;;;;;;4981025;28;20445;-64
2023/05/02 07:24:43;;;;;;;35.00;16.60;;;11.70;99.90;;;;;;4988157;28;20042;-64
2023/05/02 07:27:09;;;;;;;33.38;16.60;;;11.60;99.90;;;;;;4990573;28;20485;-65
2023/05/02 07:29:35;;;;;;;29.88;16.70;;;11.50;99.90;;;;;;4984621;28;20436;-64
2023/05/02 07:32:01;;;;;;;31.90;14.98;;;11.40;99.90;;;;;;4983634;28;20046;-63
2023/05/02 07:34:27;;;;;;;28.13;14.85;;;11.30;99.90;;;;;;4984491;28;20026;-63
2023/05/02 07:36:52;;;;;;;30.65;15.93;;;11.30;99.90;;;;;;4983951;28;20026;-64
2023/05/02 07:39:18;;;;;;;29.58;15.68;;;11.30;99.90;;;;;;4987979;28;20515;-63
2023/05/02 07:41:44;;;;;;;25.50;14.90;;;11.30;99.90;;;;;;4985358;28;20696;-64
2023/05/02 07:44:10;;;;;;;30.30;16.63;;;11.30;99.90;;;;;;4990816;28;20036;-64
2023/05/02 07:46:36;;;;;;;29.10;15.40;;;11.50;99.90;;;;;;4985114;28;20165;-65
2023/05/02 07:49:02;;;;;;;28.85;16.05;;;11.60;99.90;;;;;;4975885;28;20109;-64
2023/05/02 07:51:27;;;;;;;26.77;15.38;;;11.70;99.90;;;;;;4954906;28;20042;-63
2023/05/02 07:53:57;;;;;;;23.77;14.65;;;11.70;99.90;;;;;;4983911;28;20038;-64
2023/05/02 07:56:23;;;;;;;28.05;16.52;;;11.70;99.90;;;;;;4980934;28;20038;-64
2023/05/02 07:58:50;;;;;;;28.50;16.92;;;11.80;99.90;;;;;;4971893;28;20403;-65
2023/05/02 08:01:16;;;;;;;28.20;15.25;;;12.00;99.90;;;;;;4985737;28;20176;-65
2023/05/02 08:03:42;;;;;;;25.00;13.75;;;12.00;99.90;;;;;;4988181;28;20472;-64
2023/05/02 08:06:08;;;;;;;19.88;10.73;;;11.80;99.90;;;;;;4982970;28;20026;-65
2023/05/02 08:08:34;;;;;;;16.45;8.85;;;11.50;99.90;;;;;;4999022;23;20037;-63
2023/05/02 08:11:00;;;;;;;14.48;8.32;;;11.60;99.90;;;;;;4988114;28;20029;-64
2023/05/02 08:13:26;;;;;;;13.18;7.88;;;11.70;99.90;;;;;;5003795;28;20017;-66
2023/05/02 08:15:56;;;;;;;13.23;7.20;;;11.80;99.90;;;;;;5006259;28;20513;-65
2023/05/02 08:18:23;;;;;;;12.20;6.82;;;12.10;99.90;;;;;;5010167;28;20498;-64
2023/05/02 08:20:49;;;;;;;11.50;6.07;;;12.60;99.90;;;;;;5003127;28;20038;-65
2023/05/02 08:23:15;;;;;;;10.18;5.32;;;12.90;99.90;;;;;;5002122;28;20485;-63
2023/05/02 08:25:41;;;;;;;10.07;5.50;;;13.10;99.90;;;;;;5002447;28;20161;-66
2023/05/02 08:28:06;;;;;;;10.50;5.07;;;13.50;99.90;;;;;;5006256;28;20030;-66
2023/05/02 08:30:32;;;;;;;7.65;4.40;;;13.20;99.90;;;;;;5004797;28;20029;-66
2023/05/02 08:32:57;;;;;;;8.18;4.15;;;13.20;99.90;;;;;;5003243;28;20030;-63
2023/05/02 08:35:23;;;;;;;6.65;4.38;;;13.10;99.90;;;;;;5002653;28;20034;-63
2023/05/02 08:37:48;;;;;;;10.45;4.78;;;13.10;99.90;;;;;;5006281;28;20018;-65
2023/05/02 08:40:16;;;;;;;13.85;5.85;;;12.80;99.90;;;;;;5002362;28;20110;-65
2023/05/02 08:42:44;;;;;;;8.50;4.57;;;12.80;99.90;;;;;;5005552;28;20050;-65
2023/05/02 08:45:14;;;;;;;8.82;4.85;;;13.00;99.90;;;;;;5004610;28;20369;-62
2023/05/02 08:47:40;;;;;;;10.98;4.65;;;13.00;99.90;;;;;;4989507;28;20072;-64
2023/05/02 08:50:08;;;;;;;6.63;4.20;;;13.30;99.90;;;;;;4992576;28;20041;-64
2023/05/02 08:52:35;;;;;;;8.13;4.63;;;13.30;99.90;;;;;;5008376;28;20029;-64
2023/05/02 08:55:02;;;;;;;12.68;5.60;;;13.60;99.90;;;;;;5003351;28;20041;-66
2023/05/02 08:57:29;;;;;;;11.20;5.65;;;13.80;99.90;;;;;;5009253;28;20510;-65
2023/05/02 08:59:55;;;;;;;12.10;4.90;;;13.80;99.90;;;;;;5002780;28;20068;-66
2023/05/02 09:02:32;;;;;;;8.48;5.32;;;13.90;99.90;;;;;;5003317;28;20031;-65
2023/05/02 09:05:00;;;;;;;11.52;6.55;;;13.90;99.90;;;;;;5000480;28;20030;-65
2023/05/02 09:07:26;;;;;;;10.73;6.15;;;13.80;99.90;;;;;;5007229;28;20022;-65
2023/05/02 09:09:51;;;;;;;15.27;6.95;;;13.80;99.90;;;;;;5007461;28;20113;-64
2023/05/02 09:12:25;;;;;;;12.82;7.25;;;14.00;99.90;;;;;;5005501;28;20096;-64
2023/05/02 09:15:11;;;;;;;12.27;7.30;;;14.10;99.90;;;;;;5004306;28;20026;-66
2023/05/02 09:17:44;;;;;;;16.30;7.10;;;14.00;99.90;;;;;;5001622;28;20026;-65
2023/05/02 09:20:14;;;;;;;13.05;7.60;;;13.80;99.90;;;;;;5003623;28;20045;-65
2023/05/02 09:22:51;;;;;;;10.88;6.90;;;13.80;99.90;;;;;;5005279;28;20026;-66
2023/05/02 09:25:18;;;;;;;15.13;6.65;;;13.70;99.90;;;;;;5006210;28;20056;-65
2023/05/02 09:27:51;;;;;;;14.07;6.65;;;13.70;99.90;;;;;;4999900;28;20037;-64
2023/05/02 09:30:22;;;;;;;14.07;7.20;;;13.80;99.90;;;;;;4985763;28;20025;-64
2023/05/02 09:32:55;;;;;;;10.65;6.15;;;14.10;99.90;;;;;;5008985;28;20038;-64
2023/05/02 09:35:24;;;;;;;10.33;5.87;;;14.10;99.90;;;;;;5009204;28;20030;-65
2023/05/02 09:37:57;;;;;;;16.75;6.75;;;14.00;99.90;;;;;;5004766;28;20037;-65
2023/05/02 09:40:23;;;;;;;11.60;7.32;;;13.90;99.90;;;;;;5008997;28;20112;-64
2023/05/02 09:42:50;;;;;;;17.98;6.47;;;13.70;99.90;;;;;;5006350;28;20026;-65
2023/05/02 09:45:20;;;;;;;12.15;6.55;;;13.70;99.90;;;;;;4988927;28;20076;-64
2023/05/02 09:47:46;;;;;;;13.55;6.80;;;13.50;99.90;;;;;;5008571;28;20042;-62
2023/05/02 09:50:32;;;;;;;13.77;5.95;;;13.20;99.90;;;;;;4977398;28;20041;-64
2023/05/02 09:53:05;;;;;;;10.25;7.03;;;13.10;99.90;;;;;;5001863;28;20025;-64
2023/05/02 09:55:31;;;;;;;18.20;11.27;;;12.80;99.90;;;;;;5004904;28;20026;-64
2023/05/02 09:57:57;;;;;;;18.60;10.85;;;12.20;99.90;;;;;;5003687;28;20632;-64
2023/05/02 10:00:41;;;;;;;16.98;10.90;;;12.10;99.90;;;;;;5005040;28;20026;-64
2023/05/02 10:03:07;;;;;;;13.15;9.30;;;12.00;99.90;;;;;;5006631;28;20029;-63
2023/05/02 10:05:36;;;;;;;15.00;8.95;;;11.90;99.90;;;;;;5007422;28;20029;-63
2023/05/02 10:08:07;;;;;;;14.85;8.73;;;11.90;99.90;;;;;;5009571;28;20411;-65
2023/05/02 10:10:44;;;;;;;18.60;8.40;;;11.90;99.90;;;;;;5002343;28;20034;-64
2023/05/02 10:13:12;;;;;;;10.05;6.47;;;12.10;99.90;;;;;;5005603;28;20900;-66
2023/05/02 10:15:42;;;;;;;16.45;5.75;;;12.20;99.90;;;;;;5003974;28;20022;-64
2023/05/02 10:18:15;;;;;;;9.77;4.18;;;12.50;99.90;;;;;;5009221;28;20119;-64
2023/05/02 10:20:55;;;;;;;8.70;3.53;;;12.40;99.90;;;;;;5007327;28;20030;-65
2023/05/02 10:23:24;;;;;;;8.82;3.58;;;12.40;99.90;;;;;;5009160;28;20026;-65
2023/05/02 10:25:50;;;;;;;4.15;2.92;;;12.50;99.90;;;;;;4983147;28;20488;-65
2023/05/02 10:28:16;;;;;;;6.80;2.67;;;12.60;99.90;;;;;;5008980;28;20036;-63
2023/05/02 10:30:42;;;;;;;4.00;2.17;;;12.40;99.90;;;;;;5005107;28;20034;-64
2023/05/02 10:33:08;;;;;;;3.60;1.90;;;12.30;99.90;;;;;;5006591;28;20403;-62
2023/05/02 10:35:36;;;;;;;3.75;1.92;;;12.40;99.90;;;;;;5006921;28;20045;-64
2023/05/02 10:38:02;;;;;;;5.95;2.08;;;12.30;99.90;;;;;;5007580;28;20388;-64
2023/05/02 10:40:28;;;;;;;4.78;2.03;;;12.30;99.90;;;;;;5011149;28;20503;-64
2023/05/02 10:42:54;;;;;;;3.80;2.00;;;12.40;99.90;;;;;;5003646;28;20038;-64
2023/05/02 10:45:29;;;;;;;3.25;1.80;;;12.70;99.90;;;;;;5007206;28;20084;-64
2023/05/02 10:48:13;;;;;;;3.20;2.10;;;12.90;99.90;;;;;;5009752;28;20112;-65
2023/05/02 10:50:45;;;;;;;;;;;13.40;99.90;;;;;;4980386;28;20084;-63
2023/05/02 10:53:35;;;;;;;4.15;2.33;;;13.90;99.90;;;;;;5002126;28;20007;-64
2023/05/02 10:56:16;;;;;;;4.28;2.83;;;14.20;99.90;;;;;;5000552;28;20150;-65
2023/05/02 10:58:47;;;;;;;9.35;3.63;;;14.70;99.90;;;;;;5008334;28;20127;-64
2023/05/02 11:01:40;;;;;;;7.35;3.25;;;14.70;99.90;;;;;;5007652;28;20440;-64
2023/05/02 11:04:10;;;;;;;9.30;3.78;;;14.70;99.90;;;;;;4983131;28;20032;-63
2023/05/02 11:07:03;;;;;;;8.20;3.72;;;14.50;99.90;;;;;;4998774;28;20026;-65
2023/05/02 11:09:31;;;;;;;6.45;3.20;;;14.40;99.90;;;;;;5000118;28;20038;-65
2023/05/02 11:11:58;;;;;;;5.72;2.83;;;14.30;99.90;;;;;;5009599;28;20036;-66
2023/05/02 11:14:35;;;;;;;4.00;2.92;;;14.40;99.90;;;;;;5006424;28;20045;-67
2023/05/02 11:17:02;;;;;;;4.50;2.92;;;14.60;99.90;;;;;;4995545;28;20446;-65
2023/05/02 11:19:35;;;;;;;5.80;3.65;;;14.80;99.90;;;;;;5006209;28;20391;-64
2023/05/02 11:22:23;;;;;;;4.55;2.67;;;14.80;99.90;;;;;;5004999;28;20041;-66
2023/05/02 11:24:51;;;;;;;4.03;2.95;;;14.80;99.90;;;;;;4977188;28;20058;-65
2023/05/02 11:27:32;;;;;;;3.38;2.42;;;15.00;99.90;;;;;;5007123;28;20423;-64
2023/05/02 11:30:08;;;;;;;6.55;3.15;;;14.80;99.90;;;;;;5001972;28;20049;-66
2023/05/02 11:32:48;;;;;;;5.40;3.55;;;14.70;99.90;;;;;;5008256;28;20491;-64
2023/05/02 11:35:15;;;;;;;10.68;3.05;;;14.60;99.90;;;;;;5010879;28;20026;-63
2023/05/02 11:37:41;;;;;;;6.05;3.75;;;14.30;99.90;;;;;;5006475;28;20032;-64
2023/05/02 11:40:14;;;;;;;6.55;3.95;;;13.90;99.90;;;;;;4993195;28;20112;-65
2023/05/02 11:42:41;;;;;;;5.85;4.15;;;13.60;99.90;;;;;;5008754;28;20030;-64
2023/05/02 11:45:06;;;;;;;5.45;4.40;;;13.40;99.90;;;;;;5004545;28;20038;-65
2023/05/02 11:47:32;;;;;;;4.95;3.92;;;13.50;99.90;;;;;;4989797;28;20033;-65
2023/05/02 11:50:00;;;;;;;8.35;4.97;;;13.50;99.90;;;;;;4980690;28;20049;-67
2023/05/02 11:52:26;;;;;;;7.28;3.90;;;13.80;99.90;;;;;;5009843;28;20034;-65
2023/05/02 11:54:55;;;;;;;6.18;3.92;;;14.20;99.90;;;;;;4993936;28;20037;-65
2023/05/02 11:57:21;;;;;;;12.15;4.72;;;14.30;99.90;;;;;;5006067;28;20025;-66
2023/05/02 11:59:54;;;;;;;5.72;3.88;;;14.30;99.90;;;;;;5008710;28;20514;-64
2023/05/02 12:02:44;;;;;;;7.50;4.80;;;14.30;99.90;;;;;;5008354;28;20022;-65
2023/05/02 12:05:12;;;;;;;8.98;4.40;;;14.30;99.90;;;;;;5004915;28;20092;-65
2023/05/02 12:07:41;;;;;;;7.45;4.13;;;14.30;99.90;;;;;;5001778;28;20049;-65
2023/05/02 12:10:08;;;;;;;7.05;4.47;;;14.40;99.90;;;;;;5007174;28;20022;-66
2023/05/02 12:12:34;;;;;;;5.22;3.88;;;14.40;99.90;;;;;;4998513;28;20037;-65
2023/05/02 12:15:08;;;;;;;7.57;4.32;;;14.80;99.90;;;;;;4978368;28;20030;-64
2023/05/02 12:17:38;;;;;;;7.30;3.88;;;14.60;99.90;;;;;;5003598;28;20013;-66
2023/05/02 12:20:07;;;;;;;8.77;3.83;;;14.50;99.90;;;;;;5009950;28;20495;-65
2023/05/02 12:22:33;;;;;;;7.63;3.85;;;14.50;99.90;;;;;;4987411;28;20109;-64
2023/05/02 12:24:59;;;;;;;5.80;3.90;;;14.40;99.90;;;;;;5004811;28;20022;-64
2023/05/02 12:27:26;;;;;;;5.82;3.70;;;14.30;99.90;;;;;;5013393;28;20026;-65
2023/05/02 12:29:52;;;;;;;6.68;3.60;;;13.80;99.90;;;;;;5014667;28;20449;-65
2023/05/02 12:32:32;;;;;;;5.90;3.13;;;13.50;99.90;;;;;;5001313;28;20519;-64
2023/05/02 12:34:58;;;;;;;6.15;3.60;;;13.40;99.90;;;;;;5001796;28;20126;-64
2023/05/02 12:37:25;;;;;;;6.57;3.25;;;13.50;99.90;;;;;;4999920;28;20034;-64
2023/05/02 12:39:52;;;;;;;5.28;3.20;;;13.60;99.90;;;;;;5002194;28;20170;-65
2023/05/02 12:42:20;;;;;;;7.10;3.15;;;13.90;99.90;;;;;;5002235;28;20080;-65
2023/05/02 12:44:48;;;;;;;8.35;3.40;;;14.00;99.90;;;;;;5003621;28;20155;-65